createdAt,value
2023-05-11T00:01:04.046Z,6.00
2023-05-11T00:03:05.751Z,7.00
2023-05-11T00:05:08.075Z,6.00
2023-05-11T00:07:10.096Z,5.75
2023-05-11T00:09:11.666Z,7.00
2023-05-11T00:11:15.059Z,6.75
2023-05-11T00:13:17.438Z,5.50
2023-05-11T00:15:19.482Z,7.00
2023-05-11T00:17:21.311Z,7.00
2023-05-11T00:19:23.197Z,6.50
2023-05-11T00:21:25.025Z,6.25
2023-05-11T00:23:27.077Z,5.00
2023-05-11T00:25:28.921Z,5.25
2023-05-11T00:27:32.115Z,5.75
2023-05-11T00:29:34.817Z,6.00
2023-05-11T00:31:36.455Z,8.00
2023-05-11T00:33:38.433Z,6.50
2023-05-11T00:35:40.462Z,5.75
2023-05-11T00:37:41.993Z,7.75
2023-05-11T00:39:44.074Z,6.75
2023-05-11T00:41:45.671Z,4.00
2023-05-11T00:43:48.995Z,6.50
2023-05-11T00:45:50.697Z,7.25
2023-05-11T00:47:52.675Z,7.00
2023-05-11T00:49:54.964Z,5.75
2023-05-11T00:51:56.960Z,5.50
2023-05-11T00:53:59.242Z,7.25
2023-05-11T00:56:01.472Z,5.75
2023-05-11T00:58:03.518Z,7.00
2023-05-11T01:00:08.668Z,7.00
2023-05-11T01:02:11.049Z,5.50
2023-05-11T01:04:13.362Z,7.00
2023-05-11T01:06:25.748Z,7.00
2023-05-11T01:08:36.257Z,9.00
2023-05-11T01:10:43.528Z,6.50
2023-05-11T01:12:53.424Z,3.25
2023-05-11T01:15:02.191Z,8.00
2023-05-11T01:17:11.981Z,7.50
2023-05-11T01:19:36.728Z,6.00
2023-05-11T01:21:41.285Z,6.50
2023-05-11T01:24:12.490Z,6.25
2023-05-11T01:26:39.213Z,8.00
2023-05-11T01:29:07.625Z,6.75
2023-05-11T01:31:12.798Z,6.00
2023-05-11T01:33:16.571Z,7.00
2023-05-11T01:35:21.012Z,7.75
2023-05-11T01:37:24.552Z,7.25
2023-05-11T01:39:32.935Z,5.75
2023-05-11T01:41:38.013Z,7.25
2023-05-11T01:43:41.043Z,7.00
2023-05-11T01:45:47.895Z,6.75
2023-05-11T01:47:55.895Z,7.00
2023-05-11T01:50:01.361Z,8.00
2023-05-11T01:52:05.598Z,7.75
2023-05-11T01:54:09.053Z,7.00
2023-05-11T01:56:11.823Z,5.75
2023-05-11T01:58:15.558Z,6.75
2023-05-11T02:00:19.065Z,8.00
2023-05-11T02:02:21.809Z,7.00
2023-05-11T02:04:26.709Z,6.75
2023-05-11T02:06:30.366Z,6.00
2023-05-11T02:08:33.315Z,6.25
2023-05-11T02:10:37.180Z,8.00
2023-05-11T02:12:40.971Z,6.25
2023-05-11T02:14:43.636Z,8.00
2023-05-11T02:16:48.379Z,8.00
2023-05-11T02:18:50.734Z,8.00
2023-05-11T02:20:56.280Z,6.75
2023-05-11T02:22:58.967Z,8.25
2023-05-11T02:25:00.897Z,9.00
2023-05-11T02:27:02.993Z,6.00
2023-05-11T02:29:04.710Z,6.75
2023-05-11T02:31:12.324Z,8.50
2023-05-11T02:33:20.989Z,5.50
2023-05-11T02:35:26.148Z,7.00
2023-05-11T02:37:31.057Z,8.75
2023-05-11T02:39:36.532Z,7.50
2023-05-11T02:41:43.708Z,8.00
2023-05-11T02:43:49.554Z,7.00
2023-05-11T02:45:54.584Z,8.75
2023-05-11T02:47:59.395Z,8.00
2023-05-11T02:50:04.352Z,6.00
2023-05-11T02:52:07.785Z,7.25
2023-05-11T02:54:13.349Z,8.75
2023-05-11T02:56:15.252Z,8.50
2023-05-11T02:58:18.640Z,8.25
2023-05-11T03:00:20.738Z,8.50
2023-05-11T03:02:23.179Z,8.00
2023-05-11T03:04:25.026Z,7.25
2023-05-11T03:06:26.807Z,7.25
2023-05-11T03:08:29.598Z,8.25
2023-05-11T03:10:36.882Z,6.00
2023-05-11T03:12:44.341Z,7.75
2023-05-11T03:14:46.465Z,7.00
2023-05-11T03:16:49.144Z,8.75
2023-05-11T03:18:58.019Z,7.50
2023-05-11T03:21:02.434Z,7.25
2023-05-11T03:23:06.264Z,7.75
2023-05-11T03:25:10.088Z,8.00
2023-05-11T03:27:14.306Z,8.00
2023-05-11T03:29:17.767Z,8.50
2023-05-11T03:31:19.494Z,8.25
2023-05-11T03:33:21.302Z,7.75
2023-05-11T03:35:27.377Z,8.50
2023-05-11T03:37:30.318Z,8.00
2023-05-11T03:39:36.415Z,7.00
2023-05-11T03:41:40.233Z,8.00
2023-05-11T03:43:45.139Z,8.25
2023-05-11T03:45:48.284Z,8.00
2023-05-11T03:47:52.191Z,8.50
2023-05-11T03:49:55.201Z,7.25
2023-05-11T03:51:57.771Z,7.25
2023-05-11T03:53:59.727Z,8.25
2023-05-11T03:56:01.680Z,9.00
2023-05-11T03:58:07.685Z,9.00
2023-05-11T04:00:12.664Z,9.75
2023-05-11T04:02:14.543Z,8.00
2023-05-11T04:04:17.724Z,7.75
2023-05-11T04:06:19.769Z,8.25
2023-05-11T04:08:21.728Z,6.50
2023-05-11T04:10:23.356Z,9.00
2023-05-11T04:12:25.055Z,7.75
2023-05-11T04:14:27.013Z,9.00
2023-05-11T04:16:30.136Z,8.00
2023-05-11T04:18:31.839Z,8.50
2023-05-11T04:20:33.687Z,7.75
2023-05-11T04:22:35.435Z,7.75
2023-05-11T04:24:37.495Z,8.00
2023-05-11T04:26:39.381Z,8.50
2023-05-11T04:28:40.965Z,8.50
2023-05-11T04:30:42.548Z,7.75
2023-05-11T04:32:45.486Z,8.00
2023-05-11T04:34:47.118Z,9.25
2023-05-11T04:36:49.112Z,8.00
2023-05-11T04:38:50.977Z,7.50
2023-05-11T04:40:52.571Z,7.00
2023-05-11T04:42:54.199Z,7.00
2023-05-11T04:44:55.752Z,9.00
2023-05-11T04:46:58.078Z,8.25
2023-05-11T04:49:01.409Z,4.00
2023-05-11T04:51:05.272Z,8.75
2023-05-11T04:53:07.126Z,8.75
2023-05-11T04:55:09.196Z,9.00
2023-05-11T04:57:11.214Z,5.00
2023-05-11T04:59:13.262Z,7.50
2023-05-11T05:01:15.594Z,8.00
2023-05-11T05:03:17.517Z,9.00
2023-05-11T05:05:20.932Z,8.50
2023-05-11T05:07:22.524Z,8.00
2023-05-11T05:09:24.184Z,7.50
2023-05-11T05:11:25.864Z,8.00
2023-05-11T05:13:27.478Z,8.50
2023-05-11T05:15:29.017Z,6.00
2023-05-11T05:17:30.847Z,9.00
2023-05-11T05:19:32.443Z,8.00
2023-05-11T05:21:35.717Z,7.25
2023-05-11T05:23:37.507Z,8.00
2023-05-11T05:25:39.020Z,9.00
2023-05-11T05:27:41.291Z,7.75
2023-05-11T05:29:42.804Z,7.75
2023-05-11T05:31:44.393Z,9.00
2023-05-11T05:33:46.292Z,8.00
2023-05-11T05:35:47.924Z,7.50
2023-05-11T05:37:50.833Z,6.25
2023-05-11T05:39:52.465Z,6.25
2023-05-11T05:41:54.271Z,8.00
2023-05-11T05:43:56.129Z,8.50
2023-05-11T05:45:58.037Z,9.00
2023-05-11T05:47:59.994Z,9.00
2023-05-11T05:50:01.559Z,8.00
2023-05-11T05:52:03.372Z,8.50
2023-05-11T05:54:10.558Z,9.75
2023-05-11T05:56:12.402Z,9.00
2023-05-11T05:58:13.878Z,7.00
2023-05-11T06:00:16.263Z,9.25
2023-05-11T06:02:18.447Z,8.25
2023-05-11T06:04:20.050Z,9.25
2023-05-11T06:06:21.915Z,8.25
2023-05-11T06:08:23.827Z,10.00
2023-05-11T06:10:27.046Z,9.50
2023-05-11T06:12:28.576Z,10.00
2023-05-11T06:14:30.103Z,8.25
2023-05-11T06:16:31.742Z,6.25
2023-05-11T06:18:33.652Z,8.00
2023-05-11T06:20:35.282Z,9.50
2023-05-11T06:22:36.916Z,8.00
2023-05-11T06:24:38.611Z,8.00
2023-05-11T06:26:41.941Z,8.75
2023-05-11T06:28:43.823Z,8.75
2023-05-11T06:30:45.371Z,9.75
2023-05-11T06:32:46.997Z,8.00
2023-05-11T06:34:48.783Z,2.75
2023-05-11T06:36:50.942Z,7.50
2023-05-11T06:38:52.786Z,9.50
2023-05-11T06:40:54.345Z,7.80
2023-05-11T06:42:57.499Z,7.60
2023-05-11T06:44:59.083Z,9.20
2023-05-11T06:47:01.209Z,6.80
2023-05-11T06:49:02.819Z,8.60
2023-05-11T06:51:04.770Z,9.20
2023-05-11T06:53:06.567Z,8.20
2023-05-11T06:55:13.193Z,7.80
2023-05-11T06:57:14.960Z,8.20
2023-05-11T06:59:18.311Z,8.80
2023-05-11T07:01:20.049Z,8.80
2023-05-11T07:03:21.879Z,5.60
2023-05-11T07:05:23.473Z,8.40
2023-05-11T07:07:25.239Z,7.00
2023-05-11T07:09:27.084Z,6.40
2023-05-11T07:11:28.840Z,7.80
2023-05-11T07:13:31.080Z,6.00
2023-05-11T07:15:34.199Z,7.60
2023-05-11T07:17:35.873Z,7.00
2023-05-11T07:19:37.765Z,7.40
2023-05-11T07:21:39.925Z,8.20
2023-05-11T07:23:41.745Z,8.60
2023-05-11T07:25:43.295Z,6.00
2023-05-11T07:27:45.033Z,6.60
2023-05-11T07:29:46.574Z,7.40
2023-05-11T07:31:49.611Z,6.00
2023-05-11T07:33:51.345Z,8.20
2023-05-11T07:35:53.703Z,8.20
2023-05-11T07:37:55.652Z,7.00
2023-05-11T07:39:57.834Z,7.60
2023-05-11T07:41:59.700Z,7.80
2023-05-11T07:44:01.215Z,7.00
2023-05-11T07:46:03.412Z,7.00
2023-05-11T07:48:06.848Z,6.00
2023-05-11T07:50:09.240Z,7.00
2023-05-11T07:52:10.872Z,6.80
2023-05-11T07:54:12.537Z,7.20
2023-05-11T07:56:14.175Z,6.00
2023-05-11T07:58:15.843Z,6.75
2023-05-11T08:00:18.516Z,7.00
2023-05-11T08:02:20.350Z,7.00
2023-05-11T08:04:23.394Z,7.75
2023-05-11T08:06:25.143Z,7.50
2023-05-11T08:08:27.053Z,5.00
2023-05-11T08:10:28.692Z,6.50
2023-05-11T08:12:30.666Z,6.25
2023-05-11T08:14:32.421Z,5.00
2023-05-11T08:16:34.062Z,6.25
2023-05-11T08:18:36.153Z,6.00
2023-05-11T08:20:39.468Z,5.75
2023-05-11T08:22:41.100Z,6.00
2023-05-11T08:24:42.714Z,5.25
2023-05-11T08:26:44.341Z,5.00
2023-05-11T08:28:46.168Z,5.00
2023-05-11T08:30:54.353Z,5.00
2023-05-11T08:32:58.892Z,5.00
2023-05-11T08:35:01.102Z,6.00
2023-05-11T08:37:04.570Z,4.00
2023-05-11T08:39:06.157Z,5.00
2023-05-11T08:41:08.055Z,5.00
2023-05-11T08:43:10.878Z,3.00
2023-05-11T08:45:13.266Z,5.50
2023-05-11T08:49:20.872Z,4.75
2023-05-11T08:51:23.118Z,5.00
2023-05-11T08:53:26.314Z,5.00
2023-05-11T08:55:29.873Z,6.75
2023-05-11T08:57:32.620Z,2.25
2023-05-11T08:59:34.490Z,4.00
2023-05-11T09:01:36.871Z,4.50
2023-05-11T09:03:40.013Z,5.25
2023-05-11T09:05:45.460Z,4.75
2023-05-11T09:07:50.576Z,4.00
2023-05-11T09:09:53.863Z,5.00
2023-05-11T09:11:55.738Z,4.25
2023-05-11T09:13:57.624Z,4.25
2023-05-11T09:15:59.518Z,1.50
2023-05-11T09:18:01.558Z,4.00
2023-05-11T09:20:05.934Z,4.00
2023-05-11T09:22:07.571Z,5.00
2023-05-11T09:24:11.913Z,5.00
2023-05-11T09:26:16.269Z,4.00
2023-05-11T09:28:25.531Z,4.00
2023-05-11T09:30:27.835Z,4.50
2023-05-11T09:32:47.120Z,5.00
2023-05-11T09:34:49.040Z,5.75
2023-05-11T09:36:52.411Z,4.00
2023-05-11T09:38:57.337Z,5.75
2023-05-11T09:40:59.064Z,4.25
2023-05-11T09:43:02.716Z,5.00
2023-05-11T09:45:05.236Z,4.25
2023-05-11T09:47:11.418Z,5.25
2023-05-11T09:49:13.172Z,6.50
2023-05-11T09:51:14.824Z,5.75
2023-05-11T09:53:16.654Z,6.25
2023-05-11T09:55:18.565Z,5.75
2023-05-11T09:57:26.608Z,5.00
2023-05-11T09:59:40.713Z,4.00
2023-05-11T10:01:42.536Z,3.50
2023-05-11T10:03:53.844Z,4.00
2023-05-11T10:05:59.651Z,5.50
2023-05-11T10:08:03.046Z,5.00
2023-05-11T10:10:06.337Z,4.25
2023-05-11T10:12:08.929Z,3.00
2023-05-11T10:14:12.485Z,3.25
2023-05-11T10:16:17.391Z,3.75
2023-05-11T10:18:20.378Z,4.25
2023-05-11T10:20:22.818Z,4.25
2023-05-11T10:22:26.170Z,3.75
2023-05-11T10:24:28.628Z,4.50
2023-05-11T10:26:31.827Z,4.25
2023-05-11T10:28:33.783Z,3.75
2023-05-11T10:30:36.091Z,3.50
2023-05-11T10:32:39.725Z,3.75
2023-05-11T10:34:42.608Z,4.00
2023-05-11T10:36:46.380Z,3.00
2023-05-11T10:38:48.271Z,2.00
2023-05-11T10:40:53.297Z,3.00
2023-05-11T10:43:15.247Z,2.75
2023-05-11T10:45:22.128Z,3.00
2023-05-11T10:47:41.672Z,4.00
2023-05-11T10:50:04.369Z,2.75
2023-05-11T10:52:30.612Z,2.75
2023-05-11T10:54:49.373Z,3.00
2023-05-11T10:57:09.048Z,2.75
2023-05-11T10:59:30.581Z,3.00
2023-05-11T11:01:38.216Z,3.00
2023-05-11T11:03:40.137Z,3.00
2023-05-11T11:05:43.452Z,4.00
2023-05-11T11:07:57.951Z,3.00
2023-05-11T11:10:01.878Z,3.00
2023-05-11T11:12:09.880Z,3.00
2023-05-11T11:14:13.922Z,3.00
2023-05-11T11:16:16.773Z,3.00
2023-05-11T11:18:22.897Z,2.00
2023-05-11T11:20:47.441Z,2.25
2023-05-11T11:22:49.442Z,3.00
2023-05-11T11:24:51.480Z,3.00
2023-05-11T11:26:53.095Z,2.50
2023-05-11T11:29:08.571Z,2.80
2023-05-11T11:31:26.841Z,3.00
2023-05-11T11:33:33.096Z,2.00
2023-05-11T11:35:48.833Z,3.25
2023-05-11T11:38:03.707Z,2.80
2023-05-11T11:40:14.685Z,2.00
2023-05-11T11:42:18.844Z,1.00
2023-05-11T11:44:21.184Z,2.75
2023-05-11T11:46:27.273Z,3.75
2023-05-11T11:48:31.135Z,3.00
2023-05-11T11:50:33.364Z,2.80
2023-05-11T11:52:36.731Z,3.00
2023-05-11T11:54:38.560Z,4.00
2023-05-11T11:56:44.357Z,3.00
2023-05-11T11:58:58.850Z,2.75
2023-05-11T12:01:02.100Z,2.75
2023-05-11T12:03:05.055Z,3.00
2023-05-11T12:05:11.564Z,3.00
2023-05-11T12:07:16.153Z,3.75
2023-05-11T12:09:19.586Z,4.00
2023-05-11T12:11:22.384Z,3.50
2023-05-11T12:13:24.961Z,3.25
2023-05-11T12:15:28.524Z,4.25
2023-05-11T12:17:30.210Z,1.25
2023-05-11T12:19:31.899Z,3.50
2023-05-11T12:21:33.704Z,2.75
2023-05-11T12:23:35.411Z,3.00
2023-05-11T12:25:38.429Z,1.75
2023-05-11T12:27:48.271Z,3.00
2023-05-11T12:29:50.025Z,3.75
2023-05-11T12:31:51.823Z,2.75
2023-05-11T12:33:53.501Z,3.00
2023-05-11T12:35:56.808Z,4.00
2023-05-11T12:38:00.808Z,3.50
2023-05-11T12:40:02.598Z,4.75
2023-05-11T12:42:06.205Z,4.00
2023-05-11T12:44:07.807Z,4.00
2023-05-11T12:46:09.877Z,4.00
2023-05-11T12:48:12.787Z,2.00
2023-05-11T12:50:14.898Z,2.50
2023-05-11T12:52:16.608Z,0.50
2023-05-11T12:54:29.626Z,1.25
2023-05-11T12:56:31.271Z,3.00
2023-05-11T12:58:40.629Z,3.00
2023-05-11T13:00:51.318Z,3.00
2023-05-11T13:02:54.681Z,3.25
2023-05-11T13:04:58.274Z,3.50
2023-05-11T13:07:00.021Z,3.00
2023-05-11T13:09:01.991Z,3.50
2023-05-11T13:11:19.964Z,3.25
2023-05-11T13:13:28.650Z,3.25
2023-05-11T13:15:33.893Z,2.00
2023-05-11T13:17:37.081Z,3.00
2023-05-11T13:19:39.243Z,3.25
2023-05-11T13:21:40.831Z,3.00
2023-05-11T13:23:48.855Z,3.00
2023-05-11T13:25:53.852Z,2.50
2023-05-11T13:27:55.764Z,2.00
2023-05-11T13:29:57.533Z,3.00
2023-05-11T13:32:00.813Z,3.00
2023-05-11T13:34:02.376Z,2.00
2023-05-11T13:36:04.645Z,3.00
2023-05-11T13:38:06.856Z,2.00
2023-05-11T13:40:09.728Z,2.00
2023-05-11T13:42:11.512Z,2.25
2023-05-11T13:44:13.563Z,3.00
2023-05-11T13:46:15.216Z,2.00
2023-05-11T13:48:18.734Z,2.25
2023-05-11T13:50:20.838Z,3.00
2023-05-11T13:52:22.982Z,1.25
2023-05-11T13:54:24.769Z,2.00
2023-05-11T13:56:26.485Z,2.00
2023-05-11T13:58:28.103Z,2.00
2023-05-11T14:00:29.821Z,1.00
2023-05-11T14:02:33.098Z,2.00
2023-05-11T14:04:36.215Z,2.67
2023-05-11T14:06:38.080Z,2.00
2023-05-11T14:08:40.029Z,1.50
2023-05-11T14:10:41.967Z,2.00
2023-05-11T14:12:43.681Z,2.00
2023-05-11T14:14:45.328Z,2.25
2023-05-11T14:16:47.109Z,2.00
2023-05-11T14:18:49.303Z,2.00
2023-05-11T14:20:53.325Z,3.00
2023-05-11T14:22:54.927Z,2.00
2023-05-11T14:24:56.512Z,2.00
2023-05-11T14:26:58.800Z,2.50
2023-05-11T14:29:00.431Z,2.00
2023-05-11T14:31:02.694Z,3.00
2023-05-11T14:33:04.359Z,3.25
2023-05-11T14:35:06.665Z,2.00
2023-05-11T14:37:09.926Z,1.00
2023-05-11T14:39:11.493Z,2.00
2023-05-11T14:41:13.148Z,2.00
2023-05-11T14:43:15.026Z,2.00
2023-05-11T14:45:17.199Z,1.00
2023-05-11T14:47:19.289Z,2.00
2023-05-11T14:49:21.005Z,2.50
2023-05-11T14:51:23.154Z,1.75
2023-05-11T14:53:26.500Z,2.00
2023-05-11T14:55:28.469Z,2.00
2023-05-11T14:57:30.144Z,2.25
2023-05-11T14:59:32.017Z,2.00
2023-05-11T15:01:33.867Z,2.00
2023-05-11T15:03:36.251Z,3.25
2023-05-11T15:05:38.288Z,2.25
2023-05-11T15:07:40.340Z,2.25
2023-05-11T15:09:45.885Z,2.75
2023-05-11T15:11:47.512Z,3.00
2023-05-11T15:13:49.395Z,3.25
2023-05-11T15:15:51.950Z,3.75
2023-05-11T15:17:53.992Z,3.00
2023-05-11T15:19:55.916Z,4.00
2023-05-11T15:21:57.539Z,4.00
2023-05-11T15:23:59.085Z,3.00
2023-05-11T15:26:02.529Z,3.00
2023-05-11T15:28:04.324Z,3.00
2023-05-11T15:30:07.553Z,3.00
2023-05-11T15:32:13.740Z,4.00
2023-05-11T15:34:15.588Z,3.00
2023-05-11T15:36:19.413Z,3.25
2023-05-11T15:38:21.712Z,3.75
2023-05-11T15:40:23.760Z,4.00
2023-05-11T15:42:26.751Z,4.00
2023-05-11T15:44:29.912Z,3.00
2023-05-11T15:46:31.805Z,4.25
2023-05-11T15:48:33.408Z,5.00
2023-05-11T15:50:35.355Z,3.50
2023-05-11T15:52:37.250Z,5.00
2023-05-11T15:54:38.911Z,4.00
2023-05-11T15:56:40.711Z,5.00
2023-05-11T15:58:44.027Z,5.25
2023-05-11T16:00:45.723Z,5.00
2023-05-11T16:02:47.446Z,3.25
2023-05-11T16:04:49.294Z,4.50
2023-05-11T16:06:50.979Z,2.00
2023-05-11T16:08:52.842Z,4.00
2023-05-11T16:10:54.467Z,5.00
2023-05-11T16:12:58.707Z,4.75
2023-05-11T16:15:01.984Z,4.00
2023-05-11T16:17:03.841Z,3.50
2023-05-11T16:19:05.600Z,4.00
2023-05-11T16:21:07.590Z,3.50
2023-05-11T16:23:09.130Z,4.00
2023-05-11T16:25:11.165Z,4.25
2023-05-11T16:27:12.791Z,4.50
2023-05-11T16:29:14.605Z,4.00
2023-05-11T16:31:18.004Z,4.00
2023-05-11T16:33:19.662Z,5.00
2023-05-11T16:35:21.570Z,4.25
2023-05-11T16:37:23.300Z,4.00
2023-05-11T16:39:24.852Z,3.50
2023-05-11T16:41:26.927Z,5.00
2023-05-11T16:43:28.482Z,4.25
2023-05-11T16:45:30.127Z,6.00
2023-05-11T16:47:33.051Z,3.50
2023-05-11T16:49:34.743Z,4.75
2023-05-11T16:51:36.362Z,4.00
2023-05-11T16:53:37.868Z,3.50
2023-05-11T16:55:39.519Z,5.00
2023-05-11T16:57:41.167Z,3.25
2023-05-11T16:59:42.805Z,4.75
2023-05-11T17:01:44.913Z,5.00
2023-05-11T17:03:48.467Z,4.25
2023-05-11T17:05:50.692Z,4.00
2023-05-11T17:07:52.287Z,3.00
2023-05-11T17:09:53.830Z,5.50
2023-05-11T17:11:55.796Z,4.75
2023-05-11T17:13:57.569Z,5.00
2023-05-11T17:15:59.240Z,4.00
2023-05-11T17:18:00.975Z,3.00
2023-05-11T17:20:04.946Z,4.00
2023-05-11T17:22:07.631Z,5.00
2023-05-11T17:24:09.509Z,5.00
2023-05-11T17:26:12.423Z,5.00
2023-05-11T17:28:14.727Z,4.00
2023-05-11T17:30:16.628Z,0.75
2023-05-11T17:32:18.545Z,3.00
2023-05-11T17:34:22.097Z,4.25
2023-05-11T17:36:26.874Z,4.00
2023-05-11T17:38:28.757Z,4.00
2023-05-11T17:40:30.567Z,4.00
2023-05-11T17:42:32.214Z,5.00
2023-05-11T17:44:33.791Z,4.00
2023-05-11T17:46:35.535Z,4.00
2023-05-11T17:48:37.171Z,4.60
2023-05-11T17:50:38.824Z,4.00
2023-05-11T17:52:41.870Z,4.00
2023-05-11T17:54:43.775Z,3.40
2023-05-11T17:56:45.825Z,3.40
2023-05-11T17:58:47.608Z,3.00
2023-05-11T18:00:49.921Z,4.60
2023-05-11T18:02:51.863Z,3.00
2023-05-11T18:04:53.659Z,4.00
2023-05-11T18:06:55.273Z,3.20
2023-05-11T18:08:58.909Z,4.00
2023-05-11T18:11:00.817Z,4.00
2023-05-11T18:13:03.084Z,4.00
2023-05-11T18:15:05.850Z,5.00
2023-05-11T18:17:07.456Z,2.20
2023-05-11T18:19:09.804Z,4.00
2023-05-11T18:21:11.692Z,3.00
2023-05-11T18:23:13.350Z,3.40
2023-05-11T18:25:16.411Z,3.00
2023-05-11T18:27:18.040Z,3.00
2023-05-11T18:29:19.653Z,3.40
2023-05-11T18:31:21.531Z,3.60
2023-05-11T18:33:23.261Z,4.00
2023-05-11T18:35:25.087Z,4.00
2023-05-11T18:37:26.902Z,4.40
2023-05-11T18:39:28.807Z,4.80
2023-05-11T18:41:32.121Z,4.40
2023-05-11T18:43:33.878Z,3.40
2023-05-11T18:45:35.687Z,4.00
2023-05-11T18:47:37.293Z,2.00
2023-05-11T18:49:39.123Z,3.80
2023-05-11T18:51:40.846Z,3.80
2023-05-11T18:53:42.441Z,4.40
2023-05-11T18:55:52.564Z,3.80
2023-05-11T18:57:57.065Z,4.00
2023-05-11T18:59:58.634Z,3.80
2023-05-11T19:02:00.601Z,2.40
2023-05-11T19:04:02.566Z,4.00
2023-05-11T19:06:06.253Z,3.20
2023-05-11T19:08:07.867Z,5.00
2023-05-11T19:10:10.119Z,4.60
2023-05-11T19:12:11.720Z,4.20
2023-05-11T19:14:14.842Z,4.00
2023-05-11T19:16:16.538Z,3.60
2023-05-11T19:18:18.066Z,3.40
2023-05-11T19:20:20.471Z,3.80
2023-05-11T19:22:22.439Z,4.20
2023-05-11T19:24:23.968Z,5.60
2023-05-11T19:26:25.502Z,4.60
2023-05-11T19:28:27.602Z,4.00
2023-05-11T19:30:30.714Z,4.40
2023-05-11T19:32:32.273Z,3.80
2023-05-11T19:34:34.123Z,3.20
2023-05-11T19:36:35.988Z,4.60
2023-05-11T19:38:37.512Z,3.00
2023-05-11T19:40:45.994Z,3.60
2023-05-11T19:42:48.148Z,4.80
2023-05-11T19:44:50.596Z,3.60
2023-05-11T19:46:56.709Z,4.75
2023-05-11T19:48:58.777Z,5.50
2023-05-11T19:51:00.365Z,2.80
2023-05-11T19:53:01.978Z,3.00
2023-05-11T19:55:04.189Z,4.00
2023-05-11T19:57:05.848Z,2.00
2023-05-11T19:59:07.474Z,4.75
2023-05-11T20:01:09.067Z,5.00
2023-05-11T20:03:12.212Z,5.00
2023-05-11T20:05:14.004Z,4.75
2023-05-11T20:07:15.800Z,4.25
2023-05-11T20:09:17.326Z,5.25
2023-05-11T20:11:18.922Z,4.50
2023-05-11T20:13:20.789Z,5.00
2023-05-11T20:15:22.367Z,4.75
2023-05-11T20:17:24.213Z,5.00
2023-05-11T20:19:27.569Z,4.75
2023-05-11T20:21:29.127Z,4.25
2023-05-11T20:23:30.800Z,5.00
2023-05-11T20:25:32.451Z,3.00
2023-05-11T20:27:34.616Z,5.25
2023-05-11T20:29:36.477Z,5.25
2023-05-11T20:31:38.052Z,5.00
2023-05-11T20:36:02.912Z,6.50
2023-05-11T20:38:04.563Z,5.25
2023-05-11T20:40:07.436Z,5.00
2023-05-11T20:42:09.091Z,4.50
2023-05-11T20:44:10.670Z,4.00
2023-05-11T20:46:12.330Z,5.00
2023-05-11T20:48:14.042Z,4.75
2023-05-11T20:50:15.666Z,5.00
2023-05-11T20:52:18.884Z,5.00
2023-05-11T20:54:20.504Z,6.25
2023-05-11T20:56:21.994Z,4.00
2023-05-11T20:58:23.641Z,6.00
2023-05-11T21:00:25.893Z,5.25
2023-05-11T21:02:28.220Z,5.00
2023-05-11T21:04:29.887Z,4.50
2023-05-11T21:06:31.571Z,4.75
2023-05-11T21:08:34.554Z,5.25
2023-05-11T21:10:36.736Z,5.00
2023-05-11T21:12:38.292Z,5.00
2023-05-11T21:14:39.929Z,3.75
2023-05-11T21:16:41.489Z,5.50
2023-05-11T21:18:43.243Z,5.75
2023-05-11T21:20:44.861Z,6.00
2023-05-11T21:22:46.470Z,2.00
2023-05-11T21:24:49.810Z,4.00
2023-05-11T21:26:51.674Z,5.00
2023-05-11T21:28:53.527Z,4.00
2023-05-11T21:30:55.150Z,5.25
2023-05-11T21:32:56.799Z,6.00
2023-05-11T21:34:58.473Z,5.00
2023-05-11T21:37:00.323Z,4.75
2023-05-11T21:39:01.939Z,6.00
2023-05-11T21:41:06.504Z,5.00
2023-05-11T21:43:10.171Z,6.00
2023-05-11T21:45:12.676Z,4.75
2023-05-11T21:47:14.529Z,5.25
2023-05-11T21:49:16.299Z,5.00
2023-05-11T21:51:17.877Z,4.25
2023-05-11T21:53:19.488Z,6.00
2023-05-11T21:55:21.613Z,7.00
2023-05-11T21:57:24.707Z,6.00
2023-05-11T21:59:26.419Z,6.50
2023-05-11T22:01:28.402Z,5.00
2023-05-11T22:03:30.191Z,6.00
2023-05-11T22:05:31.949Z,7.00
2023-05-11T22:07:33.552Z,6.00
2023-05-11T22:09:35.155Z,6.00
2023-05-11T22:11:39.150Z,5.00
2023-05-11T22:13:42.343Z,7.00
2023-05-11T22:15:44.198Z,6.50
2023-05-11T22:17:47.541Z,5.25
2023-05-11T22:19:49.299Z,5.50
2023-05-11T22:21:51.119Z,5.75
2023-05-11T22:23:53.027Z,6.00
2023-05-11T22:25:54.651Z,6.00
2023-05-11T22:27:56.275Z,6.50
2023-05-11T22:29:59.459Z,6.50
2023-05-11T22:32:01.339Z,6.50
2023-05-11T22:34:03.283Z,5.25
2023-05-11T22:36:05.328Z,6.00
2023-05-11T22:38:06.963Z,5.50
2023-05-11T22:40:09.752Z,6.00
2023-05-11T22:42:11.287Z,5.00
2023-05-11T22:44:12.791Z,6.25
2023-05-11T22:46:16.146Z,5.75
2023-05-11T22:48:17.728Z,3.00
2023-05-11T22:50:19.642Z,5.00
2023-05-11T22:52:21.378Z,5.50
2023-05-11T22:54:22.934Z,5.00
2023-05-11T22:56:24.927Z,7.00
2023-05-11T22:58:26.819Z,5.50
2023-05-11T23:00:28.949Z,4.25
2023-05-11T23:02:32.083Z,7.00
2023-05-11T23:04:33.748Z,6.00
2023-05-11T23:06:35.789Z,6.00
2023-05-11T23:08:37.665Z,6.50
2023-05-11T23:10:40.929Z,4.50
2023-05-11T23:12:42.962Z,5.00
2023-05-11T23:14:45.016Z,5.00
2023-05-11T23:16:46.621Z,5.25
2023-05-11T23:18:49.736Z,4.00
2023-05-11T23:20:55.776Z,5.00
2023-05-11T23:22:57.457Z,6.00
2023-05-11T23:24:59.232Z,5.00
2023-05-11T23:27:00.829Z,5.00
2023-05-11T23:29:02.542Z,5.50
2023-05-11T23:31:04.447Z,7.25
2023-05-11T23:33:06.126Z,5.00
2023-05-11T23:35:10.092Z,6.00
2023-05-11T23:37:11.846Z,5.00
2023-05-11T23:39:13.850Z,4.00
2023-05-11T23:41:15.512Z,5.50
2023-05-11T23:43:17.105Z,5.00
2023-05-11T23:45:18.613Z,3.00
2023-05-11T23:47:20.446Z,4.25
2023-05-11T23:49:22.384Z,0.00
2023-05-11T23:51:27.787Z,5.00
2023-05-11T23:53:29.421Z,4.00
2023-05-11T23:55:30.922Z,4.00
2023-05-11T23:57:32.551Z,5.00
2023-05-11T23:59:34.120Z,5.00
